Time;durP1;ratioP1;P1;durP2;ratioP2;P2;SDS_P1;SDS_P2;PMS_P1;PMS_P2;Temp;Humidity;BMP_temperature;BMP_pressure;BME280_temperature;BME280_humidity;BME280_pressure;Samples;Min_cycle;Max_cycle;Signal;HPM_P1;HPM_P2
2022/03/03 00:02:04;;;;;;;24.45;8.50;;;;;;;2.66;67.57;96662.41;5067269;28;20462;-57
2022/03/03 00:04:31;;;;;;;27.63;9.10;;;;;;;2.79;68.13;96673.13;5067314;28;20281;-58
2022/03/03 00:06:58;;;;;;;17.27;7.40;;;;;;;2.86;65.86;96650.72;5066925;28;20059;-57
2022/03/03 00:09:24;;;;;;;18.25;7.03;;;;;;;3.04;66.60;96657.69;5066711;28;20060;-59
2022/03/03 00:11:51;;;;;;;21.35;7.57;;;;;;;2.30;66.22;96539.09;5066746;28;20530;-57
2022/03/03 00:14:18;;;;;;;17.70;8.35;;;;;;;2.98;66.54;96634.41;5066940;28;20075;-57
2022/03/03 00:16:45;;;;;;;24.20;10.77;;;;;;;3.17;66.10;96662.13;5066630;28;20052;-58
2022/03/03 00:19:11;;;;;;;28.23;12.10;;;;;;;2.60;66.76;96557.09;5085348;28;20052;-57
2022/03/03 00:21:38;;;;;;;23.30;9.50;;;;;;;2.28;65.93;96522.25;5086559;28;20048;-58
2022/03/03 00:24:05;;;;;;;17.05;8.50;;;;;;;3.01;65.48;96652.88;5086178;28;20135;-57
2022/03/03 00:26:32;;;;;;;17.77;8.13;;;;;;;3.16;65.83;96659.72;5086928;28;20483;-57
2022/03/03 00:28:59;;;;;;;19.70;8.93;;;;;;;3.13;65.86;96655.69;5085755;28;20051;-56
2022/03/03 00:31:26;;;;;;;15.10;7.13;;;;;;;1.83;68.70;96546.56;5086757;28;20087;-58
2022/03/03 00:33:54;;;;;;;18.60;7.53;;;;;;;2.20;68.21;96602.31;5086281;28;20048;-59
2022/03/03 00:36:20;;;;;;;17.98;7.93;;;;;;;2.36;68.22;96609.63;5086498;28;20122;-55
2022/03/03 00:38:48;;;;;;;16.77;6.97;;;;;;;2.71;67.42;96664.94;5086198;28;20058;-55
2022/03/03 00:41:15;;;;;;;17.50;7.53;;;;;;;2.86;66.09;96639.78;5086021;28;20052;-55
2022/03/03 00:43:41;;;;;;;12.45;5.75;;;;;;;2.91;62.92;96653.25;5084860;28;20062;-55
2022/03/03 00:46:08;;;;;;;11.82;5.78;;;;;;;2.93;63.22;96643.59;5086394;28;20048;-55
2022/03/03 00:48:35;;;;;;;13.65;6.43;;;;;;;3.03;62.55;96677.97;5085380;28;20074;-58
2022/03/03 00:51:06;;;;;;;15.65;6.13;;;;;;;3.11;63.49;96647.81;5086563;28;20526;-58
2022/03/03 00:53:35;;;;;;;14.60;5.75;;;;;;;3.16;62.58;96655.06;5085898;28;20533;-58
2022/03/03 00:56:02;;;;;;;20.08;7.90;;;;;;;2.67;63.41;96617.53;5085771;28;20056;-58
2022/03/03 00:58:29;;;;;;;17.30;7.63;;;;;;;2.83;65.21;96657.66;5084429;28;20510;-58
2022/03/03 01:00:56;;;;;;;19.50;8.20;;;;;;;2.54;65.11;96580.31;5084266;28;20130;-58
2022/03/03 01:03:25;;;;;;;20.70;8.73;;;;;;;2.94;65.22;96636.97;5085854;28;20078;-58
2022/03/03 01:05:52;;;;;;;22.05;8.43;;;;;;;2.79;65.33;96606.69;5086021;28;20097;-58
2022/03/03 01:08:19;;;;;;;29.85;11.70;;;;;;;3.24;64.60;96640.47;5086021;28;20058;-58
2022/03/03 01:10:46;;;;;;;24.52;9.55;;;;;;;3.32;63.93;96645.09;5085533;28;20473;-57
2022/03/03 01:13:12;;;;;;;16.52;6.72;;;;;;;3.38;62.04;96635.56;5085424;28;20055;-56
2022/03/03 01:15:39;;;;;;;12.93;5.72;;;;;;;2.89;60.87;96559.81;5085391;28;20487;-55
2022/03/03 01:18:06;;;;;;;13.25;5.97;;;;;;;3.58;60.83;96634.75;5075840;28;20534;-56
2022/03/03 01:20:33;;;;;;;14.45;5.95;;;;;;;3.61;59.98;96634.06;5065505;28;20053;-58
2022/03/03 01:23:00;;;;;;;12.05;5.65;;;;;;;3.48;60.08;96607.78;5064064;28;20052;-56
2022/03/03 01:25:26;;;;;;;12.73;6.28;;;;;;;3.60;59.99;96628.94;5066030;28;20158;-56
2022/03/03 01:27:53;;;;;;;10.75;5.80;;;;;;;3.59;60.36;96625.38;5064053;28;20048;-56
2022/03/03 01:30:20;;;;;;;9.48;4.28;;;;;;;3.53;60.76;96621.25;5065305;28;20045;-55
2022/03/03 01:32:46;;;;;;;11.75;5.43;;;;;;;3.55;60.99;96613.50;5065492;28;20107;-55
2022/03/03 01:35:13;;;;;;;12.73;5.82;;;;;;;3.27;63.52;96612.47;5065208;28;20049;-57
2022/03/03 01:37:40;;;;;;;132.55;43.92;;;;;;;3.47;62.91;96611.66;5065114;28;20056;-58
2022/03/03 01:40:07;;;;;;;26.30;11.18;;;;;;;3.36;62.36;96612.38;5065218;28;20086;-56
2022/03/03 01:42:34;;;;;;;17.67;6.50;;;;;;;3.13;62.34;96600.97;5064263;28;20078;-55
2022/03/03 01:45:01;;;;;;;15.35;6.43;;;;;;;2.69;63.49;96520.38;5065354;28;20053;-56
2022/03/03 01:47:28;;;;;;;11.73;5.55;;;;;;;3.35;63.57;96617.03;5065075;28;20159;-56
2022/03/03 01:49:57;;;;;;;13.23;4.90;;;;;;;3.46;62.22;96621.00;5065225;28;20067;-55
2022/03/03 01:52:25;;;;;;;12.50;4.93;;;;;;;3.03;62.44;96535.72;5064853;28;20056;-55
2022/03/03 01:54:52;;;;;;;11.00;5.22;;;;;;;3.13;62.69;96549.78;5064791;28;20064;-57
2022/03/03 01:57:20;;;;;;;14.82;5.93;;;;;;;3.57;62.23;96622.19;5063810;28;20059;-58
2022/03/03 01:59:48;;;;;;;17.25;7.05;;;;;;;3.56;62.99;96615.09;5063304;28;20049;-57
2022/03/03 02:02:15;;;;;;;9.75;5.32;;;;;;;3.43;62.75;96621.66;5065115;28;20049;-57
2022/03/03 02:04:42;;;;;;;11.70;5.32;;;;;;;2.60;64.71;96581.72;5062989;28;20142;-57
2022/03/03 02:07:10;;;;;;;17.02;6.60;;;;;;;3.18;64.92;96611.72;5064435;28;20048;-57
2022/03/03 02:09:39;;;;;;;52.17;17.63;;;;;;;3.32;65.34;96612.25;5064046;28;20048;-56
2022/03/03 02:12:06;;;;;;;27.63;10.98;;;;;;;3.23;65.08;96611.53;5062910;28;20066;-56
2022/03/03 02:14:44;;;;;;;17.77;8.35;;;;;;;3.10;65.13;96590.69;5064754;28;20052;-56
2022/03/03 02:17:11;;;;;;;21.13;11.23;;;;;;;3.27;66.41;96623.41;5065843;28;20510;-56
2022/03/03 02:19:39;;;;;;;24.33;10.20;;;;;;;3.33;64.74;96624.81;5084352;28;20062;-57
2022/03/03 02:22:05;;;;;;;21.35;8.75;;;;;;;3.28;65.69;96625.00;5084372;28;20051;-56
2022/03/03 02:24:32;;;;;;;29.27;11.80;;;;;;;2.79;65.66;96569.22;5084149;28;20047;-55
2022/03/03 02:27:00;;;;;;;29.60;12.55;;;;;;;3.32;66.18;96606.78;5084513;28;20283;-56
2022/03/03 02:29:28;;;;;;;42.00;15.18;;;;;;;3.37;65.84;96606.56;5082892;28;20522;-57
2022/03/03 02:31:55;;;;;;;33.08;12.00;;;;;;;3.44;64.36;96615.06;5084310;28;20048;-57
2022/03/03 02:34:23;;;;;;;36.28;12.73;;;;;;;3.44;64.78;96623.28;5084667;28;20105;-57
2022/03/03 02:36:50;;;;;;;36.03;15.45;;;;;;;3.41;65.41;96618.47;5084342;28;20131;-57
2022/03/03 02:39:16;;;;;;;33.08;14.20;;;;;;;3.37;65.32;96617.53;5084352;28;20189;-57
2022/03/03 02:41:43;;;;;;;28.65;11.75;;;;;;;3.41;65.09;96613.00;5082766;28;20438;-56
2022/03/03 02:44:10;;;;;;;39.08;15.15;;;;;;;3.31;66.05;96616.13;5084073;28;20071;-56
2022/03/03 02:46:37;;;;;;;27.25;11.15;;;;;;;3.39;65.44;96612.53;5084101;28;20065;-58
2022/03/03 02:49:05;;;;;;;29.58;11.80;;;;;;;3.44;65.91;96617.00;5083851;28;20056;-57
2022/03/03 02:51:32;;;;;;;32.83;12.80;;;;;;;3.37;66.57;96612.06;5082731;28;20059;-56
2022/03/03 02:53:58;;;;;;;27.40;10.38;;;;;;;3.42;66.49;96603.63;5082778;28;20066;-57
2022/03/03 02:56:25;;;;;;;18.25;9.00;;;;;;;3.45;66.41;96597.50;5084206;28;20146;-56
2022/03/03 02:58:52;;;;;;;22.40;9.82;;;;;;;3.31;65.83;96596.97;5083560;28;20067;-57
2022/03/03 03:01:18;;;;;;;16.40;7.13;;;;;;;3.11;62.86;96581.38;5082602;28;20055;-58
2022/03/03 03:03:45;;;;;;;15.13;6.32;;;;;;;3.38;63.25;96608.19;5082327;28;20138;-56
2022/03/03 03:06:14;;;;;;;12.55;5.80;;;;;;;3.44;62.51;96623.28;5083383;28;20051;-56
2022/03/03 03:08:42;;;;;;;12.13;5.88;;;;;;;2.96;63.24;96540.91;5083822;28;20052;-56
2022/03/03 03:11:09;;;;;;;12.48;6.10;;;;;;;2.86;65.12;96555.00;5083492;28;20139;-58
2022/03/03 03:13:36;;;;;;;19.27;5.90;;;;;;;2.85;67.46;96617.09;5084256;28;20052;-56
2022/03/03 03:16:03;;;;;;;15.88;6.15;;;;;;;3.12;66.48;96615.78;5083991;28;20546;-56
2022/03/03 03:18:30;;;;;;;9.73;5.68;;;;;;;3.21;64.08;96613.78;5071596;28;20048;-56
2022/03/03 03:20:56;;;;;;;11.07;5.45;;;;;;;3.25;64.25;96603.78;5063419;28;20055;-57
2022/03/03 03:23:24;;;;;;;12.68;5.30;;;;;;;2.85;65.30;96613.56;5062140;28;20063;-57
2022/03/03 03:25:51;;;;;;;14.63;5.57;;;;;;;3.04;65.04;96612.00;5063100;28;20059;-57
2022/03/03 03:28:19;;;;;;;12.20;6.03;;;;;;;3.18;64.89;96600.78;5063364;28;20063;-57
2022/03/03 03:30:47;;;;;;;11.35;4.80;;;;;;;3.28;65.36;96608.59;5063501;28;20128;-59
2022/03/03 03:33:14;;;;;;;12.43;6.20;;;;;;;2.98;63.35;96549.59;5063732;28;20056;-57
2022/03/03 03:35:40;;;;;;;10.27;5.07;;;;;;;3.08;65.24;96554.69;5062062;28;20068;-58
2022/03/03 03:38:07;;;;;;;14.05;6.10;;;;;;;2.83;64.95;96500.97;5061749;28;20079;-56
2022/03/03 03:40:34;;;;;;;11.30;5.18;;;;;;;3.40;63.34;96591.44;5063441;28;20465;-57
2022/03/03 03:43:01;;;;;;;10.38;5.07;;;;;;;3.26;63.94;96599.91;5061561;28;20052;-57
2022/03/03 03:45:28;;;;;;;11.18;5.25;;;;;;;3.07;66.68;96602.31;5061495;28;20518;-59
2022/03/03 03:47:54;;;;;;;14.27;5.30;;;;;;;3.20;65.03;96616.84;5063130;28;20143;-57
2022/03/03 03:50:21;;;;;;;10.73;5.45;;;;;;;3.34;63.35;96626.41;5062918;28;20049;-57
2022/03/03 03:52:48;;;;;;;12.05;5.38;;;;;;;3.31;63.35;96610.66;5062945;28;20063;-56
2022/03/03 03:55:14;;;;;;;14.43;6.85;;;;;;;3.29;63.06;96591.03;5063172;28;20044;-57
2022/03/03 03:57:41;;;;;;;14.55;6.78;;;;;;;3.47;62.38;96606.19;5063736;28;20048;-59
2022/03/03 04:00:13;;;;;;;14.30;6.22;;;;;;;3.49;62.22;96609.38;5062050;28;20056;-57
2022/03/03 04:02:44;;;;;;;13.27;6.33;;;;;;;3.51;62.41;96601.63;5063468;28;20048;-57
2022/03/03 04:05:13;;;;;;;11.90;5.65;;;;;;;3.39;62.94;96587.88;5063105;28;20045;-58
2022/03/03 04:07:40;;;;;;;12.32;5.50;;;;;;;3.12;62.99;96541.91;5063099;28;20056;-58
2022/03/03 04:10:07;;;;;;;12.98;5.95;;;;;;;3.14;62.47;96550.59;5062806;28;20053;-58
2022/03/03 04:12:34;;;;;;;14.80;7.43;;;;;;;3.41;62.62;96607.53;5063120;28;20466;-58
2022/03/03 04:15:02;;;;;;;19.33;8.30;;;;;;;3.50;62.42;96589.06;5062958;28;20052;-57
2022/03/03 04:17:30;;;;;;;14.95;7.53;;;;;;;2.44;63.22;96430.34;5065855;28;20122;-58
2022/03/03 04:20:04;;;;;;;28.43;11.07;;;;;;;3.63;64.04;96598.94;5086855;28;20272;-57
2022/03/03 04:22:32;;;;;;;37.78;15.60;;;;;;;3.38;65.64;96553.44;5086412;28;20092;-59
2022/03/03 04:24:58;;;;;;;58.75;20.58;;;;;;;3.60;65.40;96599.63;5087125;28;20071;-58
2022/03/03 04:27:26;;;;;;;46.20;17.52;;;;;;;3.40;66.64;96573.06;5087136;28;20166;-58
2022/03/03 04:29:52;;;;;;;48.58;18.73;;;;;;;2.96;66.19;96519.03;5085258;28;20454;-58
2022/03/03 04:32:19;;;;;;;74.57;30.42;;;;;;;3.29;67.39;96566.38;5085237;28;20079;-57
2022/03/03 04:34:46;;;;;;;53.08;23.98;;;;;;;3.35;67.44;96578.72;5086833;28;20056;-57
2022/03/03 04:37:13;;;;;;;40.97;18.88;;;;;;;3.32;66.97;96582.13;5084806;28;20051;-59
2022/03/03 04:39:40;;;;;;;46.63;21.95;;;;;;;3.32;66.70;96582.13;5084753;28;20143;-58
2022/03/03 04:42:07;;;;;;;45.53;21.80;;;;;;;3.22;67.00;96560.69;5086628;28;20063;-58
2022/03/03 04:44:34;;;;;;;40.15;21.10;;;;;;;3.33;66.84;96586.50;5086950;28;20047;-57
2022/03/03 04:47:01;;;;;;;35.30;13.75;;;;;;;3.37;66.37;96583.91;5086516;28;20135;-57
2022/03/03 04:49:27;;;;;;;37.33;15.00;;;;;;;3.34;66.21;96584.53;5085020;28;20063;-59
2022/03/03 04:51:54;;;;;;;27.27;13.00;;;;;;;3.16;66.72;96556.53;5086383;28;20075;-57
2022/03/03 04:54:21;;;;;;;46.00;18.70;;;;;;;3.23;66.78;96588.81;5084713;28;20055;-56
2022/03/03 04:56:48;;;;;;;66.25;22.48;;;;;;;3.29;66.75;96593.75;5084647;28;20052;-57
2022/03/03 04:59:14;;;;;;;64.45;22.67;;;;;;;3.27;67.16;96560.47;5086128;28;20517;-57
2022/03/03 05:01:41;;;;;;;57.47;22.13;;;;;;;2.97;67.75;96526.13;5085802;28;20518;-57
2022/03/03 05:04:08;;;;;;;43.38;17.75;;;;;;;2.89;67.58;96488.72;5086619;28;20280;-57
2022/03/03 05:06:35;;;;;;;50.25;20.08;;;;;;;3.38;67.30;96569.88;5085897;28;20056;-57
2022/03/03 05:09:02;;;;;;;51.00;20.92;;;;;;;3.25;67.54;96581.91;5085582;28;20048;-58
2022/03/03 05:11:28;;;;;;;33.58;15.30;;;;;;;3.26;65.48;96547.13;5085604;28;20580;-57
2022/03/03 05:13:55;;;;;;;32.47;14.38;;;;;;;3.05;66.38;96511.59;5084087;28;20059;-57
2022/03/03 05:16:22;;;;;;;21.00;9.73;;;;;;;3.54;62.74;96590.00;5085619;28;20088;-58
2022/03/03 05:18:49;;;;;;;27.92;12.18;;;;;;;3.37;63.47;96568.25;5069971;28;20091;-56
2022/03/03 05:21:15;;;;;;;24.63;9.70;;;;;;;3.22;62.51;96516.88;5065645;28;20048;-57
2022/03/03 05:23:42;;;;;;;27.00;10.50;;;;;;;3.32;61.82;96527.41;5065183;28;20055;-57
2022/03/03 05:26:09;;;;;;;34.13;14.25;;;;;;;3.16;62.63;96485.41;5065127;28;20048;-57
2022/03/03 05:28:36;;;;;;;16.50;8.15;;;;;;;3.10;61.51;96476.59;5065307;28;20052;-58
2022/03/03 05:31:02;;;;;;;20.65;10.88;;;;;;;3.71;61.64;96567.94;5062879;28;20052;-56
2022/03/03 05:33:31;;;;;;;19.70;8.98;;;;;;;3.16;62.42;96479.94;5064868;28;20135;-57
2022/03/03 05:36:00;;;;;;;37.35;14.13;;;;;;;3.77;62.80;96571.25;5063529;28;20079;-57
2022/03/03 05:38:29;;;;;;;29.50;12.00;;;;;;;3.78;62.61;96567.41;5065003;28;20083;-56
2022/03/03 05:40:57;;;;;;;20.33;8.80;;;;;;;3.77;62.01;96561.09;5065368;28;20074;-57
2022/03/03 05:43:24;;;;;;;22.67;9.50;;;;;;;3.87;62.35;96559.88;5063245;28;21429;-56
2022/03/03 05:45:52;;;;;;;21.90;10.85;;;;;;;3.95;61.86;96557.03;5065267;28;20057;-58
2022/03/03 05:48:20;;;;;;;22.45;11.00;;;;;;;4.11;61.84;96560.72;5065049;28;20128;-57
2022/03/03 05:50:47;;;;;;;15.52;6.78;;;;;;;4.06;60.80;96536.25;5063248;28;20052;-57
2022/03/03 05:53:15;;;;;;;19.52;7.47;;;;;;;4.17;60.43;96562.06;5063288;28;20057;-57
2022/03/03 05:55:52;;;;;;;18.63;9.35;;;;;;;4.22;60.28;96556.38;5063473;28;20056;-58
2022/03/03 05:58:53;;;;;;;20.45;9.88;;;;;;;4.13;60.73;96558.44;5065098;28;20080;-57
2022/03/03 06:01:20;;;;;;;17.27;8.30;;;;;;;4.19;60.18;96550.78;5060315;28;20417;-58
2022/03/03 06:03:50;;;;;;;11.57;7.03;;;;;;;4.46;59.47;96566.56;5064887;28;20561;-57
2022/03/03 06:06:31;;;;;;;16.35;7.40;;;;;;;4.47;59.97;96563.47;5062918;28;20097;-57
2022/03/03 06:09:08;;;;;;;17.98;7.78;;;;;;;4.55;59.68;96570.78;5064612;28;20370;-57
2022/03/03 06:12:02;;;;;;;16.23;7.80;;;;;;;4.43;59.80;96565.31;5063004;28;20063;-57
2022/03/03 06:14:41;;;;;;;22.58;8.95;;;;;;;4.51;59.88;96578.09;5064568;28;20056;-57
2022/03/03 06:17:08;;;;;;;20.10;8.40;;;;;;;4.21;59.70;96532.06;5064427;28;20061;-57
2022/03/03 06:19:41;;;;;;;19.00;8.50;;;;;;;4.42;59.55;96565.66;5084635;28;20055;-57
2022/03/03 06:22:09;;;;;;;16.38;8.23;;;;;;;1.05;59.61;96029.78;5084252;28;20051;-57
2022/03/03 06:24:36;;;;;;;21.05;10.10;;;;;;;4.59;59.98;96571.72;5084634;28;20056;-59
2022/03/03 06:27:04;;;;;;;18.80;8.73;;;;;;;4.78;59.15;96573.06;5084159;28;20055;-57
2022/03/03 06:29:34;;;;;;;19.70;8.98;;;;;;;4.93;59.21;96580.59;5084161;28;20161;-58
2022/03/03 06:32:01;;;;;;;20.70;9.68;;;;;;;4.82;58.91;96557.53;5084337;28;20054;-56
2022/03/03 06:34:28;;;;;;;28.45;13.20;;;;;;;5.11;58.93;96581.91;5084494;28;20062;-57
2022/03/03 06:36:55;;;;;;;13.38;7.68;;;;;;;4.86;59.52;96559.22;5084177;28;20534;-57
2022/03/03 06:39:22;;;;;;;20.55;10.75;;;;;;;4.69;58.75;96527.34;5082598;28;20087;-55
2022/03/03 06:41:50;;;;;;;19.85;10.43;;;;;;;5.11;58.83;96592.91;5061778;28;20797;-57
2022/03/03 06:44:17;;;;;;;22.75;11.93;;;;;;;5.27;58.12;96596.53;5059916;28;20063;-59
2022/03/03 06:46:44;;;;;;;18.63;10.88;;;;;;;5.23;58.54;96590.94;5060869;28;20049;-59
2022/03/03 06:49:12;;;;;;;16.70;8.32;;;;;;;5.08;58.54;96604.56;5063176;28;20059;-58
2022/03/03 06:51:49;;;;;;;21.50;10.70;;;;;;;5.06;59.14;96601.41;5062300;28;20044;-57
2022/03/03 06:54:19;;;;;;;19.10;9.77;;;;;;;5.06;59.72;96606.88;5062870;28;20482;-58
2022/03/03 06:56:47;;;;;;;27.52;11.80;;;;;;;4.40;59.76;96527.63;5060064;28;20135;-58
2022/03/03 06:59:16;;;;;;;21.58;10.35;;;;;;;4.89;60.76;96612.59;5062769;28;20503;-57
2022/03/03 07:01:44;;;;;;;23.67;10.75;;;;;;;4.76;59.81;96591.81;5062371;28;20044;-61
2022/03/03 07:04:13;;;;;;;30.08;14.65;;;;;;;4.03;60.85;96487.63;5060973;28;20060;-56
2022/03/03 07:06:40;;;;;;;22.50;10.55;;;;;;;4.78;61.03;96625.19;5060482;28;20056;-54
2022/03/03 07:09:08;;;;;;;25.50;10.85;;;;;;;4.70;61.70;96643.34;5063229;28;20889;-58
2022/03/03 07:11:37;;;;;;;16.95;8.43;;;;;;;4.71;61.11;96628.50;5062334;28;20060;-56
2022/03/03 07:14:05;;;;;;;20.67;9.30;;;;;;;3.81;61.87;96518.19;5062624;28;20044;-55
2022/03/03 07:16:42;;;;;;;29.70;13.10;;;;;;;4.57;62.04;96622.53;5061337;28;20522;-57
2022/03/03 07:19:35;;;;;;;20.35;10.52;;;;;;;4.77;62.05;96618.09;5062342;28;20110;-55
2022/03/03 07:22:31;;;;;;;23.58;10.98;;;;;;;4.91;61.32;96621.28;5062711;28;20442;-58
2022/03/03 07:25:02;;;;;;;20.00;10.05;;;;;;;5.01;61.11;96623.59;5061514;28;20052;-57
2022/03/03 07:27:30;;;;;;;25.70;11.85;;;;;;;5.16;60.73;96617.38;5060997;28;20048;-56
2022/03/03 07:30:05;;;;;;;23.67;11.07;;;;;;;5.19;60.92;96622.16;5062493;28;20049;-58
2022/03/03 07:32:37;;;;;;;26.80;12.00;;;;;;;5.29;60.69;96616.22;5059387;28;20045;-56
2022/03/03 07:35:09;;;;;;;18.95;9.13;;;;;;;5.26;60.24;96620.47;5060044;28;20597;-57
2022/03/03 07:37:46;;;;;;;25.80;10.60;;;;;;;5.29;59.83;96616.22;5060941;28;20527;-56
2022/03/03 07:40:13;;;;;;;20.23;9.27;;;;;;;5.23;59.81;96623.09;5061814;28;20060;-60
2022/03/03 07:42:40;;;;;;;22.98;10.60;;;;;;;5.30;59.87;96628.78;5059810;28;20036;-62
2022/03/03 07:45:07;;;;;;;33.17;14.75;;;;;;;5.45;60.16;96623.38;5060242;28;20056;-57
2022/03/03 07:47:35;;;;;;;29.35;13.20;;;;;;;5.35;60.50;96625.81;5061287;28;20076;-56
2022/03/03 07:50:03;;;;;;;29.25;12.40;;;;;;;5.36;60.38;96622.69;5061291;28;20462;-58
2022/03/03 07:52:32;;;;;;;31.60;14.63;;;;;;;5.15;60.48;96613.03;5061135;28;20590;-60
2022/03/03 07:54:59;;;;;;;24.83;11.93;;;;;;;5.29;60.77;96627.19;5066577;28;20060;-57
2022/03/03 07:57:34;;;;;;;17.73;9.60;;;;;;;5.39;60.05;96626.72;5066447;28;20056;-60
2022/03/03 08:00:09;;;;;;;15.80;8.98;;;;;;;5.49;60.16;96631.72;5059496;28;20438;-58
2022/03/03 08:02:40;;;;;;;23.13;11.55;;;;;;;5.59;60.24;96628.47;5065668;28;20048;-62
2022/03/03 08:05:07;;;;;;;22.40;10.60;;;;;;;5.61;60.53;96623.44;5065437;28;20091;-57
2022/03/03 08:07:43;;;;;;;19.60;9.25;;;;;;;5.61;59.58;96613.25;5066144;28;20059;-58
2022/03/03 08:10:12;;;;;;;16.67;8.05;;;;;;;5.84;58.92;96636.34;5064624;28;20056;-57
2022/03/03 08:12:40;;;;;;;19.02;8.43;;;;;;;6.05;57.56;96627.88;5065928;28;20536;-56
2022/03/03 08:15:10;;;;;;;18.83;9.05;;;;;;;6.01;58.43;96613.22;5066339;28;20064;-55
2022/03/03 08:17:38;;;;;;;17.10;8.35;;;;;;;6.14;57.58;96634.00;5064652;28;20057;-60
2022/03/03 08:20:07;;;;;;;11.18;7.03;;;;;;;6.12;56.20;96634.34;5066350;28;20079;-57
2022/03/03 08:22:34;;;;;;;16.30;8.63;;;;;;;6.27;55.51;96635.53;5064556;28;20510;-59
2022/03/03 08:25:01;;;;;;;17.63;7.53;;;;;;;6.23;54.95;96622.84;5065939;28;20056;-55
2022/03/03 08:27:28;;;;;;;13.40;6.15;;;;;;;6.24;53.97;96630.75;5064518;28;20055;-56
2022/03/03 08:30:00;;;;;;;12.57;5.95;;;;;;;6.27;53.70;96640.25;5065953;28;20071;-56
2022/03/03 08:32:38;;;;;;;17.90;7.95;;;;;;;6.35;53.93;96637.34;5064349;28;20060;-56
2022/03/03 08:35:09;;;;;;;10.15;5.30;;;;;;;6.24;53.99;96633.50;5063775;28;20048;-59
2022/03/03 08:37:41;;;;;;;13.63;6.88;;;;;;;6.28;53.71;96631.63;5063870;28;20050;-56
2022/03/03 08:40:12;;;;;;;13.23;6.47;;;;;;;6.34;52.54;96640.44;5064993;28;20114;-58
2022/03/03 08:42:43;;;;;;;12.48;5.63;;;;;;;6.31;53.82;96636.44;5065623;28;20470;-58
2022/03/03 08:45:11;;;;;;;15.63;7.25;;;;;;;6.15;53.83;96608.09;5065963;28;20053;-59
2022/03/03 08:47:39;;;;;;;9.45;5.55;;;;;;;6.52;52.28;96631.50;5064003;28;20051;-57
2022/03/03 08:50:09;;;;;;;14.32;6.35;;;;;;;6.64;52.98;96628.66;5065425;28;20052;-56
2022/03/03 08:52:55;;;;;;;11.65;6.30;;;;;;;6.96;52.45;96640.44;5064227;28;20056;-57
2022/03/03 08:55:22;;;;;;;12.57;5.97;;;;;;;6.87;51.19;96613.13;5065792;28;20894;-59
2022/03/03 08:57:50;;;;;;;12.38;6.72;;;;;;;7.06;51.00;96618.69;5063928;28;20501;-56
2022/03/03 09:00:17;;;;;;;10.68;5.18;;;;;;;7.27;51.27;96624.66;5065069;28;20084;-58
2022/03/03 09:02:46;;;;;;;12.40;5.35;;;;;;;7.42;50.50;96623.84;5064488;28;20048;-60
2022/03/03 09:05:13;;;;;;;11.13;5.22;;;;;;;7.42;49.45;96618.31;5063146;28;20044;-60
2022/03/03 09:07:40;;;;;;;13.93;7.28;;;;;;;7.13;50.57;96591.28;5062626;28;20071;-61
2022/03/03 09:10:07;;;;;;;10.18;5.57;;;;;;;7.71;50.95;96623.28;5064802;28;20052;-60
2022/03/03 09:12:35;;;;;;;10.93;6.38;;;;;;;7.95;50.60;96615.88;5065438;28;20060;-61
2022/03/03 09:15:03;;;;;;;11.05;5.70;;;;;;;8.23;49.54;96616.47;5065954;28;20404;-60
2022/03/03 09:17:32;;;;;;;7.97;4.53;;;;;;;8.28;47.29;96618.94;5064132;28;20111;-61
2022/03/03 09:20:00;;;;;;;9.60;4.90;;;;;;;8.30;47.95;96638.69;5064801;28;20056;-61
2022/03/03 09:22:28;;;;;;;9.02;4.78;;;;;;;8.12;45.60;96607.16;5064049;28;20052;-57
2022/03/03 09:24:55;;;;;;;10.18;4.88;;;;;;;8.17;46.37;96695.13;5065435;28;20048;-60
2022/03/03 09:27:22;;;;;;;8.55;4.70;;;;;;;8.21;46.74;96607.72;5065058;28;20053;-58
2022/03/03 09:29:50;;;;;;;9.10;4.75;;;;;;;8.08;47.21;96592.50;5065306;28;20084;-61
2022/03/03 09:32:17;;;;;;;10.52;5.13;;;;;;;8.33;47.96;96624.16;5065372;28;20169;-60
2022/03/03 09:34:46;;;;;;;14.18;5.57;;;;;;;8.34;47.87;96611.94;5063562;28;20044;-61
2022/03/03 09:37:15;;;;;;;9.20;5.03;;;;;;;8.45;46.10;96613.75;5064979;28;20048;-59
2022/03/03 09:39:43;;;;;;;12.77;6.28;;;;;;;8.37;46.84;96589.94;5065292;28;20052;-61
2022/03/03 09:42:10;;;;;;;10.30;5.20;;;;;;;8.24;48.14;96562.88;5065075;28;20044;-56
2022/03/03 09:44:37;;;;;;;11.60;5.43;;;;;;;8.57;48.87;96624.59;5063382;28;20048;-57
2022/03/03 09:47:04;;;;;;;8.20;4.65;;;;;;;8.41;48.57;96617.59;5063480;28;20059;-59
2022/03/03 09:49:31;;;;;;;11.15;4.82;;;;;;;8.17;47.59;96612.38;5065185;28;20072;-60
2022/03/03 09:51:58;;;;;;;9.10;4.40;;;;;;;8.27;47.33;96623.63;5064912;28;20143;-56
2022/03/03 09:54:24;;;;;;;7.50;3.92;;;;;;;7.66;47.00;96551.13;5063278;28;20491;-60
2022/03/03 09:56:51;;;;;;;9.80;4.38;;;;;;;8.09;47.15;96610.66;5065721;28;20403;-56
2022/03/03 09:59:18;;;;;;;9.02;4.00;;;;;;;7.98;46.00;96593.91;5065349;28;20078;-57
2022/03/03 10:01:45;;;;;;;9.15;5.13;;;;;;;8.06;45.93;96614.13;5064601;28;20056;-56
2022/03/03 10:04:24;;;;;;;8.90;4.00;;;;;;;7.89;45.15;96607.09;5063471;28;20408;-61
2022/03/03 10:06:51;;;;;;;9.02;4.75;;;;;;;7.40;45.41;96521.44;5064555;28;20083;-60
2022/03/03 10:09:18;;;;;;;10.00;3.72;;;;;;;7.96;45.00;96609.19;5064586;28;20056;-61
2022/03/03 10:11:48;;;;;;;9.48;4.53;;;;;;;7.89;45.38;96606.31;5062861;28;20076;-62
2022/03/03 10:14:36;;;;;;;5.25;3.38;;;;;;;7.69;45.41;96609.06;5064862;28;20052;-61
2022/03/03 10:17:05;;;;;;;9.27;4.32;;;;;;;7.72;45.72;96608.34;5064673;28;20055;-58
2022/03/03 10:19:54;;;;;;;6.75;3.83;;;;;;;7.73;45.75;96609.13;5076095;28;20129;-57
2022/03/03 10:22:42;;;;;;;9.40;3.92;;;;;;;7.85;44.46;96608.19;5084781;28;20052;-59
2022/03/03 10:25:12;;;;;;;8.40;4.05;;;;;;;8.03;45.33;96612.09;5084487;28;20054;-61
2022/03/03 10:27:40;;;;;;;7.78;4.38;;;;;;;7.95;45.09;96588.31;5084856;28;20438;-57
2022/03/03 10:30:09;;;;;;;7.20;3.70;;;;;;;8.13;43.85;96594.94;5084734;28;20054;-58
2022/03/03 10:32:38;;;;;;;8.30;3.78;;;;;;;8.46;44.82;96597.97;5084195;28;20511;-61
2022/03/03 10:35:18;;;;;;;9.30;3.80;;;;;;;8.48;44.82;96603.91;5084746;28;20269;-62
2022/03/03 10:37:46;;;;;;;12.10;5.05;;;;;;;8.28;45.16;96592.16;5084854;28;20055;-61
2022/03/03 10:40:16;;;;;;;7.60;4.18;;;;;;;8.16;43.85;96596.97;5084226;28;20056;-58
2022/03/03 10:42:48;;;;;;;8.98;5.03;;;;;;;7.49;44.54;96571.63;5084297;28;20138;-57
2022/03/03 10:45:19;;;;;;;8.10;4.50;;;;;;;7.79;43.50;96579.31;5083922;28;20043;-56
2022/03/03 10:47:58;;;;;;;7.47;4.43;;;;;;;7.91;44.94;96584.66;5083877;28;20052;-62
2022/03/03 10:50:25;;;;;;;7.88;4.20;;;;;;;7.71;44.24;96584.69;5084117;28;20097;-60
2022/03/03 10:52:52;;;;;;;10.02;3.92;;;;;;;7.73;44.27;96587.88;5083022;28;20130;-56
2022/03/03 10:55:20;;;;;;;9.40;4.30;;;;;;;7.78;44.13;96591.53;5084088;28;20240;-56
2022/03/03 10:57:57;;;;;;;8.00;4.10;;;;;;;7.76;43.97;96593.84;5084258;28;20054;-56
2022/03/03 11:00:26;;;;;;;7.78;3.88;;;;;;;7.83;43.35;96571.91;5083534;28;20300;-58
2022/03/03 11:02:58;;;;;;;6.78;4.03;;;;;;;7.74;44.33;96526.06;5083923;28;21506;-55
2022/03/03 11:05:27;;;;;;;5.78;3.03;;;;;;;8.24;43.57;96568.38;5083949;28;20410;-54
2022/03/03 11:07:56;;;;;;;9.80;4.43;;;;;;;8.13;42.47;96573.69;5083906;28;20052;-59
2022/03/03 11:10:27;;;;;;;7.60;3.53;;;;;;;7.73;42.68;96546.53;5084170;28;20048;-61
2022/03/03 11:12:54;;;;;;;8.13;4.43;;;;;;;8.25;43.93;96637.00;5081941;28;20074;-60
2022/03/03 11:15:24;;;;;;;14.80;6.03;;;;;;;8.45;43.38;96574.28;5083884;28;20047;-55
2022/03/03 11:17:52;;;;;;;7.80;3.90;;;;;;;8.53;42.07;96559.44;5083230;28;20048;-60
2022/03/03 11:20:20;;;;;;;10.07;3.90;;;;;;;8.18;41.70;96564.31;5066786;28;20088;-55
2022/03/03 11:22:51;;;;;;;8.43;4.45;;;;;;;8.50;41.78;96560.19;5063526;28;20083;-55
2022/03/03 11:25:27;;;;;;;8.18;4.40;;;;;;;8.74;41.06;96554.28;5062918;28;20056;-60
2022/03/03 11:28:08;;;;;;;12.00;5.45;;;;;;;9.11;41.41;96596.69;5062649;28;20503;-55
2022/03/03 11:30:36;;;;;;;7.20;4.15;;;;;;;9.38;40.18;96567.88;5062642;28;20138;-56
2022/03/03 11:33:18;;;;;;;7.95;3.58;;;;;;;9.63;38.79;96565.44;5062414;28;20098;-55
2022/03/03 11:35:47;;;;;;;9.20;4.32;;;;;;;9.80;39.82;96551.81;5063734;28;20419;-59
2022/03/03 11:38:14;;;;;;;7.00;4.03;;;;;;;9.65;38.79;96561.13;5061673;28;20518;-62
2022/03/03 11:41:03;;;;;;;7.47;4.00;;;;;;;9.65;38.62;96561.13;5063610;28;20067;-56